sensor_id;sensor_type;location;lat;lon;timestamp;P1;durP1;ratioP1;P2;durP2;ratioP2
10315;SDS011;5203;48.976;8.306;2023-05-27T00:01:47;10.63;;;6.47;;
10315;SDS011;5203;48.976;8.306;2023-05-27T00:04:12;10.87;;;7.03;;
10315;SDS011;5203;48.976;8.306;2023-05-27T00:06:38;9.20;;;6.40;;
10315;SDS011;5203;48.976;8.306;2023-05-27T00:09:04;11.30;;;7.00;;
10315;SDS011;5203;48.976;8.306;2023-05-27T00:11:29;10.15;;;6.88;;
10315;SDS011;5203;48.976;8.306;2023-05-27T00:13:55;10.60;;;6.63;;
10315;SDS011;5203;48.976;8.306;2023-05-27T00:16:21;8.63;;;6.20;;
10315;SDS011;5203;48.976;8.306;2023-05-27T00:18:47;12.40;;;7.20;;
10315;SDS011;5203;48.976;8.306;2023-05-27T00:21:13;7.97;;;6.57;;
10315;SDS011;5203;48.976;8.306;2023-05-27T00:23:39;12.17;;;7.23;;
10315;SDS011;5203;48.976;8.306;2023-05-27T00:26:04;13.50;;;7.20;;
10315;SDS011;5203;48.976;8.306;2023-05-27T00:28:30;11.83;;;7.03;;
10315;SDS011;5203;48.976;8.306;2023-05-27T00:30:56;11.37;;;7.00;;
10315;SDS011;5203;48.976;8.306;2023-05-27T00:33:22;8.13;;;6.37;;
10315;SDS011;5203;48.976;8.306;2023-05-27T00:35:48;10.33;;;6.83;;
10315;SDS011;5203;48.976;8.306;2023-05-27T00:38:14;10.90;;;6.50;;
10315;SDS011;5203;48.976;8.306;2023-05-27T00:40:39;12.10;;;7.13;;
10315;SDS011;5203;48.976;8.306;2023-05-27T00:43:06;12.23;;;6.63;;
10315;SDS011;5203;48.976;8.306;2023-05-27T00:45:31;10.67;;;6.77;;
10315;SDS011;5203;48.976;8.306;2023-05-27T00:47:58;9.27;;;7.33;;
10315;SDS011;5203;48.976;8.306;2023-05-27T00:50:26;10.13;;;6.90;;
10315;SDS011;5203;48.976;8.306;2023-05-27T00:52:53;10.37;;;6.87;;
10315;SDS011;5203;48.976;8.306;2023-05-27T00:55:22;9.27;;;6.33;;
10315;SDS011;5203;48.976;8.306;2023-05-27T00:57:48;11.70;;;6.47;;
10315;SDS011;5203;48.976;8.306;2023-05-27T01:00:14;17.07;;;8.10;;
10315;SDS011;5203;48.976;8.306;2023-05-27T01:02:40;10.67;;;6.73;;
10315;SDS011;5203;48.976;8.306;2023-05-27T01:05:11;8.87;;;6.70;;
10315;SDS011;5203;48.976;8.306;2023-05-27T01:10:20;9.67;;;6.40;;
10315;SDS011;5203;48.976;8.306;2023-05-27T01:13:00;8.33;;;5.93;;
10315;SDS011;5203;48.976;8.306;2023-05-27T01:15:35;8.40;;;6.63;;
10315;SDS011;5203;48.976;8.306;2023-05-27T01:18:02;13.23;;;6.97;;
10315;SDS011;5203;48.976;8.306;2023-05-27T01:20:28;10.07;;;6.63;;
10315;SDS011;5203;48.976;8.306;2023-05-27T01:22:55;12.17;;;6.50;;
10315;SDS011;5203;48.976;8.306;2023-05-27T01:25:24;8.53;;;6.00;;
10315;SDS011;5203;48.976;8.306;2023-05-27T01:27:50;9.00;;;6.30;;
10315;SDS011;5203;48.976;8.306;2023-05-27T01:30:17;11.03;;;6.60;;
10315;SDS011;5203;48.976;8.306;2023-05-27T01:32:55;11.07;;;6.93;;
10315;SDS011;5203;48.976;8.306;2023-05-27T01:35:30;12.40;;;6.60;;
10315;SDS011;5203;48.976;8.306;2023-05-27T01:38:16;10.63;;;6.40;;
10315;SDS011;5203;48.976;8.306;2023-05-27T01:40:44;10.23;;;6.17;;
10315;SDS011;5203;48.976;8.306;2023-05-27T01:43:12;10.93;;;6.80;;
10315;SDS011;5203;48.976;8.306;2023-05-27T01:45:40;8.73;;;6.80;;
10315;SDS011;5203;48.976;8.306;2023-05-27T01:48:06;8.63;;;6.37;;
10315;SDS011;5203;48.976;8.306;2023-05-27T01:50:34;8.57;;;6.10;;
10315;SDS011;5203;48.976;8.306;2023-05-27T01:53:00;10.93;;;5.80;;
10315;SDS011;5203;48.976;8.306;2023-05-27T01:55:26;16.40;;;7.17;;
10315;SDS011;5203;48.976;8.306;2023-05-27T01:57:52;12.37;;;6.40;;
10315;SDS011;5203;48.976;8.306;2023-05-27T02:00:18;10.83;;;6.20;;
10315;SDS011;5203;48.976;8.306;2023-05-27T02:02:43;8.87;;;5.77;;
10315;SDS011;5203;48.976;8.306;2023-05-27T02:05:09;9.73;;;5.87;;
10315;SDS011;5203;48.976;8.306;2023-05-27T02:07:35;10.33;;;6.03;;
10315;SDS011;5203;48.976;8.306;2023-05-27T02:10:01;10.83;;;5.77;;
10315;SDS011;5203;48.976;8.306;2023-05-27T02:12:27;9.93;;;6.37;;
10315;SDS011;5203;48.976;8.306;2023-05-27T02:14:53;10.47;;;5.77;;
10315;SDS011;5203;48.976;8.306;2023-05-27T02:17:18;10.17;;;6.40;;
10315;SDS011;5203;48.976;8.306;2023-05-27T02:19:44;7.10;;;5.37;;
10315;SDS011;5203;48.976;8.306;2023-05-27T02:22:10;9.50;;;6.00;;
10315;SDS011;5203;48.976;8.306;2023-05-27T02:24:35;11.53;;;6.23;;
10315;SDS011;5203;48.976;8.306;2023-05-27T02:27:01;9.67;;;5.83;;
10315;SDS011;5203;48.976;8.306;2023-05-27T02:29:27;12.27;;;6.50;;
10315;SDS011;5203;48.976;8.306;2023-05-27T02:31:53;9.63;;;5.90;;
10315;SDS011;5203;48.976;8.306;2023-05-27T02:34:18;8.97;;;6.30;;
10315;SDS011;5203;48.976;8.306;2023-05-27T02:36:44;11.60;;;5.97;;
10315;SDS011;5203;48.976;8.306;2023-05-27T02:39:10;8.70;;;6.03;;
10315;SDS011;5203;48.976;8.306;2023-05-27T02:41:35;9.90;;;5.77;;
10315;SDS011;5203;48.976;8.306;2023-05-27T02:44:01;13.20;;;6.37;;
10315;SDS011;5203;48.976;8.306;2023-05-27T02:46:27;10.20;;;6.00;;
10315;SDS011;5203;48.976;8.306;2023-05-27T02:48:53;9.23;;;6.13;;
10315;SDS011;5203;48.976;8.306;2023-05-27T02:51:19;10.90;;;6.40;;
10315;SDS011;5203;48.976;8.306;2023-05-27T02:53:45;10.43;;;5.93;;
10315;SDS011;5203;48.976;8.306;2023-05-27T02:56:11;8.23;;;6.40;;
10315;SDS011;5203;48.976;8.306;2023-05-27T02:58:36;10.90;;;6.10;;
10315;SDS011;5203;48.976;8.306;2023-05-27T03:01:02;8.90;;;5.93;;
10315;SDS011;5203;48.976;8.306;2023-05-27T03:03:29;8.30;;;5.60;;
10315;SDS011;5203;48.976;8.306;2023-05-27T03:05:55;9.63;;;6.20;;
10315;SDS011;5203;48.976;8.306;2023-05-27T03:08:21;10.60;;;6.27;;
10315;SDS011;5203;48.976;8.306;2023-05-27T03:10:46;13.73;;;6.50;;
10315;SDS011;5203;48.976;8.306;2023-05-27T03:13:12;12.53;;;6.50;;
10315;SDS011;5203;48.976;8.306;2023-05-27T03:15:38;8.63;;;5.50;;
10315;SDS011;5203;48.976;8.306;2023-05-27T03:18:04;10.10;;;5.47;;
10315;SDS011;5203;48.976;8.306;2023-05-27T03:20:30;9.43;;;5.90;;
10315;SDS011;5203;48.976;8.306;2023-05-27T03:22:55;9.03;;;5.87;;
10315;SDS011;5203;48.976;8.306;2023-05-27T03:25:21;9.53;;;6.13;;
10315;SDS011;5203;48.976;8.306;2023-05-27T03:27:48;10.07;;;5.33;;
10315;SDS011;5203;48.976;8.306;2023-05-27T03:30:14;8.90;;;5.53;;
10315;SDS011;5203;48.976;8.306;2023-05-27T03:32:40;10.63;;;5.70;;
10315;SDS011;5203;48.976;8.306;2023-05-27T03:35:05;7.80;;;5.60;;
10315;SDS011;5203;48.976;8.306;2023-05-27T03:37:31;8.77;;;5.60;;
10315;SDS011;5203;48.976;8.306;2023-05-27T03:39:57;10.33;;;5.70;;
10315;SDS011;5203;48.976;8.306;2023-05-27T03:42:22;12.93;;;6.23;;
10315;SDS011;5203;48.976;8.306;2023-05-27T03:44:48;9.97;;;5.23;;
10315;SDS011;5203;48.976;8.306;2023-05-27T03:47:14;10.87;;;6.27;;
10315;SDS011;5203;48.976;8.306;2023-05-27T03:49:43;11.80;;;5.97;;
10315;SDS011;5203;48.976;8.306;2023-05-27T03:52:08;8.90;;;6.07;;
10315;SDS011;5203;48.976;8.306;2023-05-27T03:54:34;10.07;;;6.03;;
10315;SDS011;5203;48.976;8.306;2023-05-27T03:57:00;13.53;;;5.87;;
10315;SDS011;5203;48.976;8.306;2023-05-27T03:59:26;7.63;;;5.40;;
10315;SDS011;5203;48.976;8.306;2023-05-27T04:01:51;9.20;;;5.70;;
10315;SDS011;5203;48.976;8.306;2023-05-27T04:04:17;7.87;;;5.10;;
10315;SDS011;5203;48.976;8.306;2023-05-27T04:06:43;9.03;;;6.03;;
10315;SDS011;5203;48.976;8.306;2023-05-27T04:09:09;9.17;;;5.90;;
10315;SDS011;5203;48.976;8.306;2023-05-27T04:11:34;9.23;;;5.03;;
10315;SDS011;5203;48.976;8.306;2023-05-27T04:14:00;8.60;;;5.10;;
10315;SDS011;5203;48.976;8.306;2023-05-27T04:16:26;9.27;;;5.77;;
10315;SDS011;5203;48.976;8.306;2023-05-27T04:18:51;11.50;;;5.73;;
10315;SDS011;5203;48.976;8.306;2023-05-27T04:21:18;13.20;;;5.50;;
10315;SDS011;5203;48.976;8.306;2023-05-27T04:23:44;9.03;;;5.90;;
10315;SDS011;5203;48.976;8.306;2023-05-27T04:26:09;11.57;;;5.67;;
10315;SDS011;5203;48.976;8.306;2023-05-27T04:28:35;8.77;;;6.07;;
10315;SDS011;5203;48.976;8.306;2023-05-27T04:31:01;9.00;;;5.77;;
10315;SDS011;5203;48.976;8.306;2023-05-27T04:33:27;7.73;;;5.87;;
10315;SDS011;5203;48.976;8.306;2023-05-27T04:35:53;12.20;;;5.80;;
10315;SDS011;5203;48.976;8.306;2023-05-27T04:38:20;9.37;;;5.93;;
10315;SDS011;5203;48.976;8.306;2023-05-27T04:40:49;9.43;;;5.83;;
10315;SDS011;5203;48.976;8.306;2023-05-27T04:43:20;9.53;;;5.90;;
10315;SDS011;5203;48.976;8.306;2023-05-27T04:45:46;10.13;;;6.03;;
10315;SDS011;5203;48.976;8.306;2023-05-27T04:48:12;10.03;;;6.57;;
10315;SDS011;5203;48.976;8.306;2023-05-27T04:50:38;13.43;;;6.73;;
10315;SDS011;5203;48.976;8.306;2023-05-27T04:53:05;8.23;;;6.33;;
10315;SDS011;5203;48.976;8.306;2023-05-27T04:55:31;9.40;;;5.47;;
10315;SDS011;5203;48.976;8.306;2023-05-27T04:57:57;11.57;;;6.07;;
10315;SDS011;5203;48.976;8.306;2023-05-27T05:00:24;12.97;;;6.70;;
10315;SDS011;5203;48.976;8.306;2023-05-27T05:03:18;10.87;;;6.43;;
10315;SDS011;5203;48.976;8.306;2023-05-27T05:06:01;10.97;;;6.20;;
10315;SDS011;5203;48.976;8.306;2023-05-27T05:08:28;9.13;;;5.30;;
10315;SDS011;5203;48.976;8.306;2023-05-27T05:10:53;12.20;;;5.97;;
10315;SDS011;5203;48.976;8.306;2023-05-27T05:13:19;10.33;;;6.10;;
10315;SDS011;5203;48.976;8.306;2023-05-27T05:15:45;11.53;;;5.70;;
10315;SDS011;5203;48.976;8.306;2023-05-27T05:18:11;10.13;;;5.43;;
10315;SDS011;5203;48.976;8.306;2023-05-27T05:20:37;8.13;;;5.37;;
10315;SDS011;5203;48.976;8.306;2023-05-27T05:23:02;11.07;;;5.60;;
10315;SDS011;5203;48.976;8.306;2023-05-27T05:25:28;8.00;;;5.23;;
10315;SDS011;5203;48.976;8.306;2023-05-27T05:27:55;15.27;;;6.47;;
10315;SDS011;5203;48.976;8.306;2023-05-27T05:30:21;13.03;;;6.20;;
10315;SDS011;5203;48.976;8.306;2023-05-27T05:32:47;11.53;;;5.20;;
10315;SDS011;5203;48.976;8.306;2023-05-27T05:35:13;9.20;;;5.87;;
10315;SDS011;5203;48.976;8.306;2023-05-27T05:37:38;9.43;;;5.53;;
10315;SDS011;5203;48.976;8.306;2023-05-27T05:40:04;7.80;;;5.30;;
10315;SDS011;5203;48.976;8.306;2023-05-27T05:42:30;12.43;;;5.37;;
10315;SDS011;5203;48.976;8.306;2023-05-27T05:44:56;8.37;;;5.30;;
10315;SDS011;5203;48.976;8.306;2023-05-27T05:47:22;9.50;;;5.20;;
10315;SDS011;5203;48.976;8.306;2023-05-27T05:49:48;11.97;;;5.77;;
10315;SDS011;5203;48.976;8.306;2023-05-27T05:52:13;10.80;;;4.83;;
10315;SDS011;5203;48.976;8.306;2023-05-27T05:54:39;9.37;;;5.80;;
10315;SDS011;5203;48.976;8.306;2023-05-27T05:57:04;10.97;;;5.23;;
10315;SDS011;5203;48.976;8.306;2023-05-27T05:59:30;9.67;;;4.83;;
10315;SDS011;5203;48.976;8.306;2023-05-27T06:01:56;9.90;;;5.13;;
10315;SDS011;5203;48.976;8.306;2023-05-27T06:04:22;11.83;;;5.37;;
10315;SDS011;5203;48.976;8.306;2023-05-27T06:06:48;11.27;;;5.17;;
10315;SDS011;5203;48.976;8.306;2023-05-27T06:09:13;8.83;;;4.50;;
10315;SDS011;5203;48.976;8.306;2023-05-27T06:11:39;11.33;;;5.50;;
10315;SDS011;5203;48.976;8.306;2023-05-27T06:14:05;9.00;;;5.60;;
10315;SDS011;5203;48.976;8.306;2023-05-27T06:16:32;11.20;;;5.53;;
10315;SDS011;5203;48.976;8.306;2023-05-27T06:18:58;10.37;;;5.37;;
10315;SDS011;5203;48.976;8.306;2023-05-27T06:21:23;7.57;;;4.90;;
10315;SDS011;5203;48.976;8.306;2023-05-27T06:23:49;9.80;;;5.27;;
10315;SDS011;5203;48.976;8.306;2023-05-27T06:26:14;9.47;;;5.47;;
10315;SDS011;5203;48.976;8.306;2023-05-27T06:28:40;8.60;;;5.80;;
10315;SDS011;5203;48.976;8.306;2023-05-27T06:31:06;8.97;;;5.50;;
10315;SDS011;5203;48.976;8.306;2023-05-27T06:33:31;11.23;;;5.47;;
10315;SDS011;5203;48.976;8.306;2023-05-27T06:35:57;10.43;;;5.20;;
10315;SDS011;5203;48.976;8.306;2023-05-27T06:38:22;15.90;;;5.53;;
10315;SDS011;5203;48.976;8.306;2023-05-27T06:40:48;11.80;;;5.33;;
10315;SDS011;5203;48.976;8.306;2023-05-27T06:43:14;10.80;;;5.67;;
10315;SDS011;5203;48.976;8.306;2023-05-27T06:45:40;11.03;;;5.63;;
10315;SDS011;5203;48.976;8.306;2023-05-27T06:48:06;9.13;;;5.63;;
10315;SDS011;5203;48.976;8.306;2023-05-27T06:50:32;12.17;;;5.77;;
10315;SDS011;5203;48.976;8.306;2023-05-27T06:52:58;11.33;;;5.50;;
10315;SDS011;5203;48.976;8.306;2023-05-27T06:55:24;9.70;;;6.50;;
10315;SDS011;5203;48.976;8.306;2023-05-27T06:57:50;8.83;;;5.97;;
10315;SDS011;5203;48.976;8.306;2023-05-27T07:00:15;9.70;;;5.47;;
10315;SDS011;5203;48.976;8.306;2023-05-27T07:02:41;11.20;;;6.37;;
10315;SDS011;5203;48.976;8.306;2023-05-27T07:05:07;10.33;;;6.00;;
10315;SDS011;5203;48.976;8.306;2023-05-27T07:07:32;9.27;;;5.33;;
10315;SDS011;5203;48.976;8.306;2023-05-27T07:09:58;9.77;;;5.37;;
10315;SDS011;5203;48.976;8.306;2023-05-27T07:12:23;9.13;;;5.37;;
10315;SDS011;5203;48.976;8.306;2023-05-27T07:14:49;12.50;;;5.50;;
10315;SDS011;5203;48.976;8.306;2023-05-27T07:17:15;11.07;;;5.87;;
10315;SDS011;5203;48.976;8.306;2023-05-27T07:19:40;10.40;;;5.93;;
10315;SDS011;5203;48.976;8.306;2023-05-27T07:22:06;7.27;;;5.37;;
10315;SDS011;5203;48.976;8.306;2023-05-27T07:24:32;10.73;;;5.70;;
10315;SDS011;5203;48.976;8.306;2023-05-27T07:26:57;9.87;;;5.20;;
10315;SDS011;5203;48.976;8.306;2023-05-27T07:29:23;9.37;;;5.63;;
10315;SDS011;5203;48.976;8.306;2023-05-27T07:31:48;10.17;;;5.50;;
10315;SDS011;5203;48.976;8.306;2023-05-27T07:34:14;11.57;;;5.67;;
10315;SDS011;5203;48.976;8.306;2023-05-27T07:36:40;11.90;;;6.37;;
10315;SDS011;5203;48.976;8.306;2023-05-27T07:39:05;9.43;;;5.20;;
10315;SDS011;5203;48.976;8.306;2023-05-27T07:41:31;11.20;;;5.50;;
10315;SDS011;5203;48.976;8.306;2023-05-27T07:43:58;12.23;;;6.13;;
10315;SDS011;5203;48.976;8.306;2023-05-27T07:46:23;9.57;;;5.80;;
10315;SDS011;5203;48.976;8.306;2023-05-27T07:48:49;10.93;;;6.00;;
10315;SDS011;5203;48.976;8.306;2023-05-27T07:51:15;9.03;;;6.03;;
10315;SDS011;5203;48.976;8.306;2023-05-27T07:53:40;12.10;;;5.40;;
10315;SDS011;5203;48.976;8.306;2023-05-27T07:56:06;10.30;;;6.37;;
10315;SDS011;5203;48.976;8.306;2023-05-27T07:58:32;9.20;;;5.97;;
10315;SDS011;5203;48.976;8.306;2023-05-27T08:00:57;9.60;;;5.75;;
10315;SDS011;5203;48.976;8.306;2023-05-27T08:03:23;9.30;;;5.82;;
10315;SDS011;5203;48.976;8.306;2023-05-27T08:05:49;9.98;;;5.70;;
10315;SDS011;5203;48.976;8.306;2023-05-27T08:08:14;11.00;;;6.30;;
10315;SDS011;5203;48.976;8.306;2023-05-27T08:10:40;7.72;;;5.53;;
10315;SDS011;5203;48.976;8.306;2023-05-27T08:13:06;9.25;;;6.03;;
10315;SDS011;5203;48.976;8.306;2023-05-27T08:15:31;10.45;;;5.68;;
10315;SDS011;5203;48.976;8.306;2023-05-27T08:17:57;9.90;;;6.22;;
10315;SDS011;5203;48.976;8.306;2023-05-27T08:20:23;10.60;;;5.97;;
10315;SDS011;5203;48.976;8.306;2023-05-27T08:22:48;11.23;;;5.82;;
10315;SDS011;5203;48.976;8.306;2023-05-27T08:25:14;8.85;;;5.85;;
10315;SDS011;5203;48.976;8.306;2023-05-27T08:27:45;9.35;;;6.25;;
10315;SDS011;5203;48.976;8.306;2023-05-27T08:30:15;9.20;;;5.82;;
10315;SDS011;5203;48.976;8.306;2023-05-27T08:32:42;14.93;;;6.43;;
10315;SDS011;5203;48.976;8.306;2023-05-27T08:35:08;8.75;;;6.38;;
10315;SDS011;5203;48.976;8.306;2023-05-27T08:37:36;7.38;;;6.35;;
10315;SDS011;5203;48.976;8.306;2023-05-27T08:40:03;7.53;;;6.13;;
10315;SDS011;5203;48.976;8.306;2023-05-27T08:42:31;24.63;;;7.75;;
10315;SDS011;5203;48.976;8.306;2023-05-27T08:44:58;10.73;;;6.35;;
10315;SDS011;5203;48.976;8.306;2023-05-27T08:47:25;9.55;;;6.78;;
10315;SDS011;5203;48.976;8.306;2023-05-27T08:49:53;9.95;;;6.40;;
10315;SDS011;5203;48.976;8.306;2023-05-27T08:52:19;8.73;;;6.45;;
10315;SDS011;5203;48.976;8.306;2023-05-27T08:54:48;10.90;;;7.05;;
10315;SDS011;5203;48.976;8.306;2023-05-27T08:57:15;9.60;;;6.22;;
10315;SDS011;5203;48.976;8.306;2023-05-27T08:59:44;16.10;;;7.15;;
10315;SDS011;5203;48.976;8.306;2023-05-27T09:02:11;9.13;;;6.25;;
10315;SDS011;5203;48.976;8.306;2023-05-27T09:04:38;9.90;;;6.18;;
10315;SDS011;5203;48.976;8.306;2023-05-27T09:07:05;8.05;;;6.70;;
10315;SDS011;5203;48.976;8.306;2023-05-27T09:09:31;9.05;;;7.13;;
10315;SDS011;5203;48.976;8.306;2023-05-27T09:12:01;9.43;;;6.93;;
10315;SDS011;5203;48.976;8.306;2023-05-27T09:14:28;10.00;;;6.93;;
10315;SDS011;5203;48.976;8.306;2023-05-27T09:16:56;10.77;;;6.55;;
10315;SDS011;5203;48.976;8.306;2023-05-27T09:19:22;9.23;;;7.28;;
10315;SDS011;5203;48.976;8.306;2023-05-27T09:21:48;8.48;;;6.80;;
10315;SDS011;5203;48.976;8.306;2023-05-27T09:24:17;12.80;;;7.22;;
10315;SDS011;5203;48.976;8.306;2023-05-27T09:26:43;14.00;;;8.10;;
10315;SDS011;5203;48.976;8.306;2023-05-27T09:29:09;12.45;;;7.40;;
10315;SDS011;5203;48.976;8.306;2023-05-27T09:31:41;10.15;;;6.78;;
10315;SDS011;5203;48.976;8.306;2023-05-27T09:34:10;11.30;;;6.90;;
10315;SDS011;5203;48.976;8.306;2023-05-27T09:36:41;9.52;;;6.82;;
10315;SDS011;5203;48.976;8.306;2023-05-27T09:39:12;12.57;;;7.18;;
10315;SDS011;5203;48.976;8.306;2023-05-27T09:41:39;11.10;;;7.43;;
10315;SDS011;5203;48.976;8.306;2023-05-27T09:44:05;9.25;;;7.22;;
10315;SDS011;5203;48.976;8.306;2023-05-27T09:46:32;9.98;;;6.45;;
10315;SDS011;5203;48.976;8.306;2023-05-27T09:48:59;10.48;;;7.72;;
10315;SDS011;5203;48.976;8.306;2023-05-27T09:51:26;9.73;;;7.53;;
10315;SDS011;5203;48.976;8.306;2023-05-27T09:53:52;8.80;;;7.85;;
10315;SDS011;5203;48.976;8.306;2023-05-27T09:56:26;11.38;;;8.15;;
10315;SDS011;5203;48.976;8.306;2023-05-27T09:58:55;11.05;;;7.75;;
10315;SDS011;5203;48.976;8.306;2023-05-27T10:01:26;14.23;;;7.95;;
10315;SDS011;5203;48.976;8.306;2023-05-27T10:03:55;11.10;;;7.72;;
10315;SDS011;5203;48.976;8.306;2023-05-27T10:06:21;10.90;;;7.95;;
10315;SDS011;5203;48.976;8.306;2023-05-27T10:08:55;9.23;;;7.82;;
10315;SDS011;5203;48.976;8.306;2023-05-27T10:11:21;9.23;;;7.68;;
10315;SDS011;5203;48.976;8.306;2023-05-27T10:13:47;10.35;;;7.88;;
10315;SDS011;5203;48.976;8.306;2023-05-27T10:16:20;12.57;;;8.63;;
10315;SDS011;5203;48.976;8.306;2023-05-27T10:18:47;10.57;;;8.15;;
10315;SDS011;5203;48.976;8.306;2023-05-27T10:21:18;11.23;;;7.93;;
10315;SDS011;5203;48.976;8.306;2023-05-27T10:23:52;8.57;;;7.68;;
10315;SDS011;5203;48.976;8.306;2023-05-27T10:26:30;12.70;;;8.40;;
10315;SDS011;5203;48.976;8.306;2023-05-27T10:31:34;13.05;;;8.43;;
10315;SDS011;5203;48.976;8.306;2023-05-27T10:34:04;12.98;;;8.63;;
10315;SDS011;5203;48.976;8.306;2023-05-27T10:36:33;12.25;;;9.10;;
10315;SDS011;5203;48.976;8.306;2023-05-27T10:39:00;10.63;;;8.93;;
10315;SDS011;5203;48.976;8.306;2023-05-27T10:41:27;9.32;;;8.32;;
10315;SDS011;5203;48.976;8.306;2023-05-27T10:43:56;11.10;;;9.20;;
10315;SDS011;5203;48.976;8.306;2023-05-27T10:46:22;12.18;;;8.85;;
10315;SDS011;5203;48.976;8.306;2023-05-27T10:48:48;11.77;;;8.93;;
10315;SDS011;5203;48.976;8.306;2023-05-27T10:51:14;10.10;;;9.10;;
10315;SDS011;5203;48.976;8.306;2023-05-27T10:53:39;11.15;;;8.80;;
10315;SDS011;5203;48.976;8.306;2023-05-27T10:56:05;11.18;;;9.88;;
10315;SDS011;5203;48.976;8.306;2023-05-27T10:58:35;10.98;;;10.07;;
10315;SDS011;5203;48.976;8.306;2023-05-27T11:01:10;9.93;;;9.05;;
10315;SDS011;5203;48.976;8.306;2023-05-27T11:03:45;12.80;;;10.20;;
10315;SDS011;5203;48.976;8.306;2023-05-27T11:06:13;14.25;;;10.40;;
10315;SDS011;5203;48.976;8.306;2023-05-27T11:08:40;12.82;;;10.23;;
10315;SDS011;5203;48.976;8.306;2023-05-27T11:11:07;12.27;;;10.90;;
10315;SDS011;5203;48.976;8.306;2023-05-27T11:13:34;11.32;;;10.32;;
10315;SDS011;5203;48.976;8.306;2023-05-27T11:16:05;13.23;;;11.85;;
10315;SDS011;5203;48.976;8.306;2023-05-27T11:21:00;12.98;;;12.02;;
10315;SDS011;5203;48.976;8.306;2023-05-27T11:23:37;13.77;;;12.43;;
10315;SDS011;5203;48.976;8.306;2023-05-27T11:26:17;13.05;;;11.95;;
10315;SDS011;5203;48.976;8.306;2023-05-27T11:28:47;12.35;;;11.18;;
10315;SDS011;5203;48.976;8.306;2023-05-27T11:31:18;13.82;;;12.38;;
10315;SDS011;5203;48.976;8.306;2023-05-27T11:33:46;11.73;;;10.82;;
10315;SDS011;5203;48.976;8.306;2023-05-27T11:36:15;11.35;;;10.50;;
10315;SDS011;5203;48.976;8.306;2023-05-27T11:38:48;11.60;;;10.50;;
10315;SDS011;5203;48.976;8.306;2023-05-27T11:41:24;11.93;;;10.73;;
10315;SDS011;5203;48.976;8.306;2023-05-27T11:44:03;12.27;;;11.23;;
10315;SDS011;5203;48.976;8.306;2023-05-27T11:46:43;13.38;;;12.38;;
10315;SDS011;5203;48.976;8.306;2023-05-27T11:49:10;14.23;;;12.80;;
10315;SDS011;5203;48.976;8.306;2023-05-27T11:51:39;14.07;;;12.73;;
10315;SDS011;5203;48.976;8.306;2023-05-27T11:54:06;13.40;;;12.45;;
10315;SDS011;5203;48.976;8.306;2023-05-27T11:56:32;16.27;;;15.07;;
10315;SDS011;5203;48.976;8.306;2023-05-27T11:58:58;15.57;;;14.38;;
10315;SDS011;5203;48.976;8.306;2023-05-27T12:01:24;16.55;;;15.27;;
10315;SDS011;5203;48.976;8.306;2023-05-27T12:03:53;17.20;;;16.10;;
10315;SDS011;5203;48.976;8.306;2023-05-27T12:06:19;18.05;;;16.80;;
10315;SDS011;5203;48.976;8.306;2023-05-27T12:08:45;17.98;;;16.40;;
10315;SDS011;5203;48.976;8.306;2023-05-27T12:11:10;18.42;;;17.23;;
10315;SDS011;5203;48.976;8.306;2023-05-27T12:13:37;17.85;;;16.52;;
10315;SDS011;5203;48.976;8.306;2023-05-27T12:16:03;17.92;;;16.73;;
10315;SDS011;5203;48.976;8.306;2023-05-27T12:18:29;16.63;;;15.52;;
10315;SDS011;5203;48.976;8.306;2023-05-27T12:20:55;16.20;;;15.20;;
10315;SDS011;5203;48.976;8.306;2023-05-27T12:23:22;17.17;;;15.95;;
10315;SDS011;5203;48.976;8.306;2023-05-27T12:25:47;17.10;;;15.90;;
10315;SDS011;5203;48.976;8.306;2023-05-27T12:28:13;17.20;;;15.90;;
10315;SDS011;5203;48.976;8.306;2023-05-27T12:30:39;17.73;;;16.13;;
10315;SDS011;5203;48.976;8.306;2023-05-27T12:33:05;17.27;;;16.17;;
10315;SDS011;5203;48.976;8.306;2023-05-27T12:35:31;17.20;;;15.90;;
10315;SDS011;5203;48.976;8.306;2023-05-27T12:37:58;17.42;;;16.17;;
10315;SDS011;5203;48.976;8.306;2023-05-27T12:40:24;16.67;;;15.45;;
10315;SDS011;5203;48.976;8.306;2023-05-27T12:42:50;17.80;;;16.40;;
10315;SDS011;5203;48.976;8.306;2023-05-27T12:45:16;17.55;;;16.42;;
10315;SDS011;5203;48.976;8.306;2023-05-27T12:47:42;18.30;;;17.10;;
10315;SDS011;5203;48.976;8.306;2023-05-27T12:50:08;17.48;;;16.35;;
10315;SDS011;5203;48.976;8.306;2023-05-27T12:52:33;16.95;;;15.65;;
10315;SDS011;5203;48.976;8.306;2023-05-27T12:55:00;17.33;;;16.27;;
10315;SDS011;5203;48.976;8.306;2023-05-27T12:57:26;18.70;;;17.40;;
10315;SDS011;5203;48.976;8.306;2023-05-27T12:59:52;18.75;;;17.42;;
10315;SDS011;5203;48.976;8.306;2023-05-27T13:02:18;19.77;;;18.35;;
10315;SDS011;5203;48.976;8.306;2023-05-27T13:04:43;20.20;;;18.52;;
10315;SDS011;5203;48.976;8.306;2023-05-27T13:07:10;18.42;;;17.30;;
10315;SDS011;5203;48.976;8.306;2023-05-27T13:09:37;19.25;;;17.95;;
10315;SDS011;5203;48.976;8.306;2023-05-27T13:12:03;19.10;;;17.42;;
10315;SDS011;5203;48.976;8.306;2023-05-27T13:14:29;18.40;;;17.27;;
10315;SDS011;5203;48.976;8.306;2023-05-27T13:16:55;19.63;;;18.25;;
10315;SDS011;5203;48.976;8.306;2023-05-27T13:19:21;19.80;;;18.52;;
10315;SDS011;5203;48.976;8.306;2023-05-27T13:21:47;20.17;;;18.77;;
10315;SDS011;5203;48.976;8.306;2023-05-27T13:24:14;19.73;;;18.50;;
10315;SDS011;5203;48.976;8.306;2023-05-27T13:26:39;19.63;;;18.35;;
10315;SDS011;5203;48.976;8.306;2023-05-27T13:29:05;18.50;;;17.33;;
10315;SDS011;5203;48.976;8.306;2023-05-27T13:31:31;19.98;;;18.60;;
10315;SDS011;5203;48.976;8.306;2023-05-27T13:33:57;19.95;;;18.10;;
10315;SDS011;5203;48.976;8.306;2023-05-27T13:36:23;19.38;;;18.27;;
10315;SDS011;5203;48.976;8.306;2023-05-27T13:38:48;18.45;;;17.33;;
10315;SDS011;5203;48.976;8.306;2023-05-27T13:41:14;19.13;;;17.92;;
10315;SDS011;5203;48.976;8.306;2023-05-27T13:43:40;17.55;;;16.50;;
10315;SDS011;5203;48.976;8.306;2023-05-27T13:46:05;18.23;;;16.92;;
10315;SDS011;5203;48.976;8.306;2023-05-27T13:48:31;19.65;;;18.25;;
10315;SDS011;5203;48.976;8.306;2023-05-27T13:50:57;19.65;;;18.45;;
10315;SDS011;5203;48.976;8.306;2023-05-27T13:53:23;19.80;;;18.70;;
10315;SDS011;5203;48.976;8.306;2023-05-27T13:55:49;19.25;;;18.05;;
10315;SDS011;5203;48.976;8.306;2023-05-27T13:58:14;19.75;;;18.65;;
10315;SDS011;5203;48.976;8.306;2023-05-27T14:00:40;18.88;;;17.73;;
10315;SDS011;5203;48.976;8.306;2023-05-27T14:03:06;19.35;;;18.00;;
10315;SDS011;5203;48.976;8.306;2023-05-27T14:05:31;20.73;;;19.33;;
10315;SDS011;5203;48.976;8.306;2023-05-27T14:07:59;20.33;;;18.83;;
10315;SDS011;5203;48.976;8.306;2023-05-27T14:10:26;21.10;;;19.67;;
10315;SDS011;5203;48.976;8.306;2023-05-27T14:12:52;20.05;;;18.75;;
10315;SDS011;5203;48.976;8.306;2023-05-27T14:15:21;20.50;;;19.17;;
10315;SDS011;5203;48.976;8.306;2023-05-27T14:17:47;20.48;;;19.20;;
10315;SDS011;5203;48.976;8.306;2023-05-27T14:20:12;21.00;;;19.40;;
10315;SDS011;5203;48.976;8.306;2023-05-27T14:22:38;20.27;;;18.98;;
10315;SDS011;5203;48.976;8.306;2023-05-27T14:25:05;19.25;;;17.95;;
10315;SDS011;5203;48.976;8.306;2023-05-27T14:27:31;20.58;;;19.40;;
10315;SDS011;5203;48.976;8.306;2023-05-27T14:29:56;21.67;;;20.55;;
10315;SDS011;5203;48.976;8.306;2023-05-27T14:32:22;21.77;;;20.48;;
10315;SDS011;5203;48.976;8.306;2023-05-27T14:34:48;21.33;;;19.90;;
10315;SDS011;5203;48.976;8.306;2023-05-27T14:37:14;23.23;;;21.75;;
10315;SDS011;5203;48.976;8.306;2023-05-27T14:39:39;24.85;;;23.42;;
10315;SDS011;5203;48.976;8.306;2023-05-27T14:42:05;23.55;;;22.00;;
10315;SDS011;5203;48.976;8.306;2023-05-27T14:44:35;21.25;;;20.15;;
10315;SDS011;5203;48.976;8.306;2023-05-27T14:47:01;22.70;;;21.20;;
10315;SDS011;5203;48.976;8.306;2023-05-27T14:49:27;21.55;;;20.15;;
10315;SDS011;5203;48.976;8.306;2023-05-27T14:51:52;21.02;;;19.60;;
10315;SDS011;5203;48.976;8.306;2023-05-27T14:54:18;20.70;;;19.55;;